createdAt,value
2022-10-06T00:01:12.435Z,11.60
2022-10-06T00:03:40.155Z,11.60
2022-10-06T00:06:10.261Z,11.60
2022-10-06T00:08:40.246Z,11.60
2022-10-06T00:11:09.011Z,11.50
2022-10-06T00:13:37.172Z,11.50
2022-10-06T00:16:30.940Z,11.50
2022-10-06T00:18:58.725Z,11.40
2022-10-06T00:21:26.134Z,11.40
2022-10-06T00:23:53.516Z,11.40
2022-10-06T00:26:20.917Z,11.30
2022-10-06T00:28:49.018Z,11.30
2022-10-06T00:31:19.396Z,11.40
2022-10-06T00:33:47.357Z,11.40
2022-10-06T00:36:14.744Z,11.30
2022-10-06T00:38:42.162Z,11.30
2022-10-06T00:41:13.438Z,11.30
2022-10-06T00:43:48.188Z,11.30
2022-10-06T00:46:21.960Z,11.20
2022-10-06T00:48:53.682Z,11.20
2022-10-06T00:51:22.317Z,11.20
2022-10-06T00:53:50.448Z,11.20
2022-10-06T00:56:17.884Z,11.30
2022-10-06T00:58:45.320Z,11.20
2022-10-06T01:01:13.511Z,11.20
2022-10-06T01:03:47.168Z,11.20
2022-10-06T01:06:14.588Z,11.10
2022-10-06T01:08:42.297Z,11.10
2022-10-06T01:11:14.296Z,11.10
2022-10-06T01:13:45.408Z,11.10
2022-10-06T01:16:19.595Z,11.10
2022-10-06T01:18:48.526Z,11.10
2022-10-06T01:21:20.482Z,11.00
2022-10-06T01:23:49.909Z,11.00
2022-10-06T01:26:19.511Z,11.00
2022-10-06T01:28:48.214Z,10.90
2022-10-06T01:31:15.854Z,11.00
2022-10-06T01:33:43.486Z,11.00
2022-10-06T01:36:10.841Z,10.90
2022-10-06T01:38:38.234Z,10.90
2022-10-06T01:41:05.835Z,10.90
2022-10-06T01:43:33.215Z,10.90
2022-10-06T01:46:00.784Z,10.80
2022-10-06T01:48:28.590Z,10.80
2022-10-06T01:50:56.267Z,10.80
2022-10-06T01:53:23.829Z,10.80
2022-10-06T01:55:51.191Z,10.80
2022-10-06T01:58:18.686Z,10.80
2022-10-06T02:00:46.792Z,10.80
2022-10-06T02:03:14.213Z,10.80
2022-10-06T02:05:41.555Z,10.80
2022-10-06T02:08:09.792Z,10.80
2022-10-06T02:10:37.195Z,10.70
2022-10-06T02:13:05.156Z,10.70
2022-10-06T02:15:33.440Z,10.70
2022-10-06T02:18:01.063Z,10.70
2022-10-06T02:20:28.485Z,10.60
2022-10-06T02:22:55.876Z,10.50
2022-10-06T02:25:23.327Z,10.50
2022-10-06T02:27:50.730Z,10.50
2022-10-06T02:30:18.266Z,10.50
2022-10-06T02:32:46.104Z,10.50
2022-10-06T02:35:13.678Z,10.50
2022-10-06T02:37:42.169Z,10.40
2022-10-06T02:40:10.117Z,10.40
2022-10-06T02:42:38.385Z,10.30
2022-10-06T02:45:07.004Z,10.30
2022-10-06T02:47:35.658Z,10.30
2022-10-06T02:50:06.082Z,10.30
2022-10-06T02:52:35.473Z,10.30
2022-10-06T02:55:04.832Z,10.30
2022-10-06T02:57:32.445Z,10.30
2022-10-06T03:00:00.455Z,10.30
2022-10-06T03:02:31.003Z,10.30
2022-10-06T03:04:58.504Z,10.30
2022-10-06T03:07:25.992Z,10.20
2022-10-06T03:09:53.373Z,10.20
2022-10-06T03:12:21.237Z,10.30
2022-10-06T03:14:48.801Z,10.30
2022-10-06T03:17:16.182Z,10.30
2022-10-06T03:19:43.591Z,10.20
2022-10-06T03:22:10.979Z,10.20
2022-10-06T03:24:38.377Z,10.20
2022-10-06T03:27:05.932Z,10.20
2022-10-06T03:29:34.134Z,10.10
2022-10-06T03:32:01.530Z,10.20
2022-10-06T03:34:28.944Z,10.20
2022-10-06T03:36:56.667Z,10.20
2022-10-06T03:39:24.032Z,10.10
2022-10-06T03:41:51.578Z,10.10
2022-10-06T03:44:19.016Z,10.10
2022-10-06T03:46:46.602Z,10.10
2022-10-06T03:49:14.047Z,10.10
2022-10-06T03:51:43.029Z,10.10
2022-10-06T03:54:11.007Z,10.10
2022-10-06T03:56:41.017Z,10.10
2022-10-06T03:59:11.022Z,10.10
2022-10-06T04:01:40.670Z,10.00
2022-10-06T04:04:09.317Z,10.00
2022-10-06T04:06:39.044Z,10.00
2022-10-06T04:09:14.755Z,10.00
2022-10-06T04:11:44.499Z,10.10
2022-10-06T04:14:15.515Z,10.00
2022-10-06T04:16:44.306Z,10.00
2022-10-06T04:19:13.412Z,10.00
2022-10-06T04:21:43.376Z,9.90
2022-10-06T04:24:11.607Z,9.90
2022-10-06T04:26:48.836Z,9.90
2022-10-06T04:29:17.107Z,9.90
2022-10-06T04:31:44.656Z,9.80
2022-10-06T04:34:13.427Z,9.90
2022-10-06T04:36:42.823Z,9.90
2022-10-06T04:39:12.031Z,9.90
2022-10-06T04:41:41.760Z,9.90
2022-10-06T04:44:09.225Z,9.90
2022-10-06T04:46:45.017Z,9.90
2022-10-06T04:49:19.519Z,9.90
2022-10-06T04:51:49.701Z,9.90
2022-10-06T04:54:18.968Z,9.90
2022-10-06T04:56:46.650Z,9.80
2022-10-06T04:59:14.230Z,9.70
2022-10-06T05:01:41.660Z,9.80
2022-10-06T05:04:09.085Z,9.70
2022-10-06T05:06:39.002Z,9.70
2022-10-06T05:09:09.522Z,9.70
2022-10-06T05:11:38.112Z,9.70
2022-10-06T05:14:05.862Z,9.80
2022-10-06T05:16:33.403Z,9.70
2022-10-06T05:19:00.921Z,9.70
2022-10-06T05:21:30.642Z,9.70
2022-10-06T05:23:58.262Z,9.70
2022-10-06T05:26:29.140Z,9.60
2022-10-06T05:28:56.642Z,9.60
2022-10-06T05:31:29.774Z,9.60
2022-10-06T05:33:58.216Z,9.60
2022-10-06T05:36:28.745Z,9.60
2022-10-06T05:38:57.397Z,9.60
2022-10-06T05:41:32.953Z,9.60
2022-10-06T05:44:00.469Z,9.60
2022-10-06T05:46:30.281Z,9.60
2022-10-06T05:49:00.324Z,9.60
2022-10-06T05:51:31.188Z,9.60
2022-10-06T05:53:59.199Z,9.60
2022-10-06T05:56:35.054Z,9.50
2022-10-06T05:59:03.362Z,9.50
2022-10-06T06:01:35.129Z,9.60
2022-10-06T06:04:06.514Z,9.60
2022-10-06T06:06:43.109Z,9.50
2022-10-06T06:09:19.150Z,9.50
2022-10-06T06:11:48.762Z,9.60
2022-10-06T06:14:40.105Z,9.60
2022-10-06T06:17:07.786Z,9.50
2022-10-06T06:19:35.195Z,9.50
2022-10-06T06:22:02.804Z,9.60
2022-10-06T06:24:30.319Z,9.50
2022-10-06T06:26:57.714Z,9.50
2022-10-06T06:29:25.157Z,9.50
2022-10-06T06:31:52.642Z,9.60
2022-10-06T06:34:20.046Z,9.60
2022-10-06T06:36:53.691Z,9.60
2022-10-06T06:39:21.604Z,9.60
2022-10-06T06:41:49.070Z,9.60
2022-10-06T06:44:16.702Z,9.60
2022-10-06T06:46:49.278Z,9.70
2022-10-06T06:49:19.061Z,9.70
2022-10-06T06:51:50.180Z,9.80
2022-10-06T06:54:18.301Z,9.80
2022-10-06T06:56:46.640Z,9.80
2022-10-06T06:59:14.254Z,9.90
2022-10-06T07:01:44.655Z,10.00
2022-10-06T07:04:14.215Z,9.90
2022-10-06T07:06:44.705Z,9.90
2022-10-06T07:09:12.093Z,10.00
2022-10-06T07:11:40.387Z,10.00
2022-10-06T07:14:11.767Z,10.00
2022-10-06T07:16:57.667Z,10.10
2022-10-06T07:19:40.749Z,10.10
2022-10-06T07:22:26.792Z,10.10
2022-10-06T07:25:08.455Z,10.20
2022-10-06T07:27:42.490Z,10.20
2022-10-06T07:30:19.090Z,10.30
2022-10-06T07:32:48.405Z,10.40
2022-10-06T07:35:16.265Z,10.40
2022-10-06T07:37:43.919Z,10.40
2022-10-06T07:40:12.520Z,10.50
2022-10-06T07:42:51.955Z,10.60
2022-10-06T07:45:38.450Z,10.60
2022-10-06T07:48:07.988Z,10.60
2022-10-06T07:50:37.983Z,10.70
2022-10-06T07:53:08.886Z,10.80
2022-10-06T07:55:39.986Z,10.80
2022-10-06T07:58:12.457Z,10.90
2022-10-06T08:00:41.461Z,10.90
2022-10-06T08:03:10.421Z,11.00
2022-10-06T08:05:39.221Z,11.00
2022-10-06T08:08:07.014Z,11.10
2022-10-06T08:10:34.465Z,11.20
2022-10-06T08:13:05.650Z,11.30
2022-10-06T08:15:33.429Z,11.40
2022-10-06T08:18:01.909Z,11.40
2022-10-06T08:20:30.417Z,11.50
2022-10-06T08:22:57.849Z,11.60
2022-10-06T08:25:25.392Z,11.60
2022-10-06T08:27:53.688Z,11.80
2022-10-06T08:30:22.340Z,11.80
2022-10-06T08:32:49.933Z,11.90
2022-10-06T08:35:17.657Z,12.00
2022-10-06T08:37:53.896Z,12.10
2022-10-06T08:40:21.367Z,12.20
2022-10-06T08:42:52.124Z,12.30
2022-10-06T08:45:38.643Z,12.40
2022-10-06T08:48:24.186Z,12.50
2022-10-06T08:51:03.245Z,12.60
2022-10-06T08:53:59.907Z,12.60
2022-10-06T08:56:35.799Z,12.70
2022-10-06T08:59:04.858Z,12.80
2022-10-06T09:01:43.712Z,12.90
2022-10-06T09:04:23.197Z,13.00
2022-10-06T09:07:05.544Z,13.10
2022-10-06T09:10:06.843Z,13.20
2022-10-06T09:12:46.180Z,13.30
2022-10-06T09:15:25.394Z,13.40
2022-10-06T09:18:29.135Z,13.60
2022-10-06T09:21:05.873Z,13.60
2022-10-06T09:23:53.973Z,13.60
2022-10-06T09:26:28.383Z,13.80
2022-10-06T09:28:56.862Z,13.80
2022-10-06T09:31:50.593Z,13.90
2022-10-06T09:34:39.191Z,13.90
2022-10-06T09:37:13.097Z,14.00
2022-10-06T09:39:52.077Z,14.20
2022-10-06T09:42:35.706Z,14.20
2022-10-06T09:45:07.557Z,14.30
2022-10-06T09:47:45.721Z,14.40
2022-10-06T09:50:21.590Z,14.50
2022-10-06T09:52:57.866Z,14.50
2022-10-06T09:55:28.695Z,14.60
2022-10-06T09:57:57.401Z,14.80
2022-10-06T10:00:30.488Z,14.80
2022-10-06T10:03:00.795Z,14.80
2022-10-06T10:05:30.842Z,14.80
2022-10-06T10:08:10.100Z,14.80
2022-10-06T10:10:38.565Z,14.90
2022-10-06T10:13:24.184Z,15.00
2022-10-06T10:15:54.438Z,15.10
2022-10-06T10:18:28.840Z,15.10
2022-10-06T10:21:26.068Z,15.20
2022-10-06T10:23:56.931Z,15.20
2022-10-06T10:26:32.833Z,15.30
2022-10-06T10:29:37.559Z,15.30
2022-10-06T10:32:49.560Z,15.40
2022-10-06T10:35:32.647Z,15.40
2022-10-06T10:38:16.820Z,15.50
2022-10-06T10:40:55.857Z,15.50
2022-10-06T10:43:26.268Z,15.60
2022-10-06T10:46:03.657Z,15.70
2022-10-06T10:48:43.903Z,15.70
2022-10-06T10:51:24.814Z,15.80
2022-10-06T10:54:13.176Z,15.70
2022-10-06T10:56:41.701Z,15.80
2022-10-06T10:59:14.654Z,16.00
2022-10-06T11:02:17.405Z,16.10
2022-10-06T11:04:49.499Z,16.10
2022-10-06T11:07:23.636Z,16.10
2022-10-06T11:10:10.854Z,16.20
2022-10-06T11:13:11.622Z,16.20
2022-10-06T11:15:49.808Z,16.40
2022-10-06T11:18:44.173Z,16.50
2022-10-06T11:21:34.868Z,16.60
2022-10-06T11:24:26.059Z,16.70
2022-10-06T11:27:03.355Z,16.80
2022-10-06T11:30:02.814Z,16.90
2022-10-06T11:32:52.389Z,17.00
2022-10-06T11:35:27.132Z,16.90
2022-10-06T11:38:12.952Z,16.90
2022-10-06T11:40:49.076Z,17.00
2022-10-06T11:43:37.448Z,17.00
2022-10-06T11:46:09.836Z,17.10
2022-10-06T11:48:37.538Z,17.20
2022-10-06T11:51:28.045Z,17.30
2022-10-06T11:53:55.753Z,17.30
2022-10-06T11:56:35.527Z,17.30
2022-10-06T11:59:13.717Z,17.40
2022-10-06T12:01:47.864Z,17.30
2022-10-06T12:04:20.643Z,17.20
2022-10-06T12:06:50.846Z,17.20
2022-10-06T12:09:33.062Z,17.20
2022-10-06T12:12:07.765Z,17.30
2022-10-06T12:18:05.108Z,17.70
2022-10-06T12:20:52.865Z,18.10
2022-10-06T12:23:30.444Z,18.20
2022-10-06T12:26:15.220Z,18.40
2022-10-06T12:28:49.922Z,18.50
2022-10-06T12:31:41.358Z,18.60
2022-10-06T12:34:53.738Z,18.40
2022-10-06T12:37:33.297Z,18.20
2022-10-06T12:40:38.147Z,18.20
2022-10-06T12:43:14.403Z,18.30
2022-10-06T12:45:46.248Z,18.30
2022-10-06T12:48:37.116Z,18.60
2022-10-06T12:51:39.695Z,18.60
2022-10-06T12:54:25.641Z,18.80
2022-10-06T12:56:59.066Z,18.90
2022-10-06T12:59:29.926Z,19.20
2022-10-06T13:02:01.306Z,19.20
2022-10-06T13:04:31.811Z,18.80
2022-10-06T13:06:59.290Z,18.20
2022-10-06T13:09:26.671Z,18.10
2022-10-06T13:11:54.203Z,18.50
2022-10-06T13:14:21.590Z,18.90
2022-10-06T13:16:49.243Z,18.70
2022-10-06T13:19:25.181Z,18.30
2022-10-06T13:21:53.659Z,18.20
2022-10-06T13:24:26.391Z,18.60
2022-10-06T13:26:54.547Z,18.70
2022-10-06T13:29:25.060Z,18.60
2022-10-06T13:31:55.589Z,18.30
2022-10-06T13:34:26.121Z,18.10
2022-10-06T13:36:53.849Z,17.90
2022-10-06T13:39:26.918Z,17.80
2022-10-06T13:42:13.012Z,18.00
2022-10-06T13:44:59.892Z,18.00
2022-10-06T13:47:31.585Z,17.90
2022-10-06T13:50:06.421Z,17.80
2022-10-06T13:52:36.255Z,17.70
2022-10-06T13:55:13.828Z,17.70
2022-10-06T13:57:43.965Z,17.70
2022-10-06T14:00:30.908Z,17.60
2022-10-06T14:03:07.869Z,17.50
2022-10-06T14:05:41.563Z,17.60
2022-10-06T14:08:12.011Z,17.80
2022-10-06T14:10:56.037Z,17.80
2022-10-06T14:13:35.214Z,17.90
2022-10-06T14:16:07.557Z,17.90
2022-10-06T14:18:40.067Z,18.00
2022-10-06T14:21:31.873Z,18.00
2022-10-06T14:24:01.857Z,18.10
2022-10-06T14:26:34.446Z,18.10
2022-10-06T14:29:01.851Z,18.10
2022-10-06T14:31:29.479Z,18.10
2022-10-06T14:33:57.267Z,18.00
2022-10-06T14:36:30.505Z,18.10
2022-10-06T14:38:59.343Z,18.10
2022-10-06T14:41:29.712Z,18.00
2022-10-06T14:43:58.202Z,18.00
2022-10-06T14:46:25.983Z,18.10
2022-10-06T14:48:53.608Z,18.10
2022-10-06T14:51:22.656Z,18.20
2022-10-06T14:53:54.069Z,18.20
2022-10-06T14:56:23.714Z,18.20
2022-10-06T14:58:52.453Z,18.20
2022-10-06T15:01:23.093Z,18.20
2022-10-06T15:03:52.601Z,18.20
2022-10-06T15:06:38.496Z,18.10
2022-10-06T15:09:06.689Z,18.10
2022-10-06T15:11:34.730Z,18.00
2022-10-06T15:14:02.811Z,18.00
2022-10-06T15:16:32.507Z,18.00
2022-10-06T15:19:00.755Z,18.00
2022-10-06T15:21:28.900Z,17.90
2022-10-06T15:23:58.007Z,17.80
2022-10-06T15:26:44.603Z,17.80
2022-10-06T15:29:13.439Z,17.80
2022-10-06T15:31:46.453Z,17.90
2022-10-06T15:34:14.771Z,17.90
2022-10-06T15:36:43.164Z,17.90
2022-10-06T15:39:16.533Z,17.80
2022-10-06T15:41:45.104Z,17.80
2022-10-06T15:44:15.259Z,17.80
2022-10-06T15:46:44.803Z,17.80
2022-10-06T15:49:13.610Z,17.80
2022-10-06T15:51:49.368Z,17.80
2022-10-06T15:54:20.689Z,17.80
2022-10-06T15:56:55.392Z,17.80
2022-10-06T15:59:26.418Z,17.80
2022-10-06T16:01:59.630Z,17.80
2022-10-06T16:04:54.314Z,17.80
2022-10-06T16:07:21.866Z,17.70
2022-10-06T16:09:51.003Z,17.70
2022-10-06T16:12:23.233Z,17.50
2022-10-06T16:14:51.125Z,17.50
2022-10-06T16:17:19.167Z,17.60
2022-10-06T16:19:47.131Z,17.50
2022-10-06T16:22:16.816Z,17.50
2022-10-06T16:24:44.348Z,17.40
2022-10-06T16:27:15.447Z,17.40
2022-10-06T16:29:42.997Z,17.30
2022-10-06T16:32:10.842Z,17.30
2022-10-06T16:34:38.359Z,17.30
2022-10-06T16:37:06.162Z,17.30
2022-10-06T16:39:33.567Z,17.20
2022-10-06T16:42:00.964Z,17.10
2022-10-06T16:44:28.529Z,17.10
2022-10-06T16:46:56.025Z,17.00
2022-10-06T16:49:24.620Z,17.00
2022-10-06T16:51:52.217Z,16.90
2022-10-06T16:54:20.844Z,16.90
2022-10-06T16:56:53.760Z,16.80
2022-10-06T16:59:47.104Z,16.80
2022-10-06T17:02:14.705Z,16.70
2022-10-06T17:04:42.258Z,16.70
2022-10-06T17:07:10.017Z,16.60
2022-10-06T17:09:37.521Z,16.60
2022-10-06T17:12:05.346Z,16.50
2022-10-06T17:14:34.748Z,16.50
2022-10-06T17:17:02.343Z,16.40
2022-10-06T17:19:30.886Z,16.40
2022-10-06T17:21:59.731Z,16.40
2022-10-06T17:24:29.560Z,16.30
2022-10-06T17:26:57.932Z,16.30
2022-10-06T17:29:26.519Z,16.30
2022-10-06T17:31:59.409Z,16.20
2022-10-06T17:34:32.497Z,16.20
2022-10-06T17:37:01.663Z,16.10
2022-10-06T17:39:29.147Z,16.10
2022-10-06T17:41:56.818Z,16.10
2022-10-06T17:44:29.183Z,16.00
2022-10-06T17:46:58.710Z,16.00
2022-10-06T17:49:27.044Z,16.00
2022-10-06T17:51:55.292Z,15.90
2022-10-06T17:54:25.084Z,15.90
2022-10-06T17:56:55.841Z,15.80
2022-10-06T17:59:28.122Z,15.80
2022-10-06T18:01:57.394Z,15.80
2022-10-06T18:04:25.364Z,15.80
2022-10-06T18:06:54.527Z,15.70
2022-10-06T18:09:22.491Z,15.70
2022-10-06T18:11:55.626Z,15.60
2022-10-06T18:14:28.625Z,15.60
2022-10-06T18:17:01.836Z,15.60
2022-10-06T18:19:36.155Z,15.60
2022-10-06T18:22:10.493Z,15.50
2022-10-06T18:24:38.712Z,15.50
2022-10-06T18:27:08.103Z,15.50
2022-10-06T18:29:37.938Z,15.40
2022-10-06T18:37:41.133Z,15.40
2022-10-06T18:40:09.873Z,15.40
2022-10-06T18:42:39.159Z,15.30
2022-10-06T18:45:26.981Z,15.30
2022-10-06T18:48:13.040Z,15.20
2022-10-06T18:50:40.678Z,15.20
2022-10-06T18:53:08.126Z,15.10
2022-10-06T18:55:35.494Z,15.10
2022-10-06T18:58:04.689Z,15.10
2022-10-06T19:00:33.291Z,15.10
2022-10-06T19:03:00.857Z,15.00
2022-10-06T19:05:28.252Z,15.00
2022-10-06T19:07:55.781Z,15.00
2022-10-06T19:10:23.238Z,15.00
2022-10-06T19:12:50.677Z,15.00
2022-10-06T19:15:21.060Z,14.90
2022-10-06T19:17:49.727Z,14.90
2022-10-06T19:20:18.473Z,14.90
2022-10-06T19:22:47.708Z,14.80
2022-10-06T19:25:18.808Z,14.80
2022-10-06T19:27:46.748Z,14.80
2022-10-06T19:30:14.884Z,14.70
2022-10-06T19:32:42.415Z,14.70
2022-10-06T19:35:10.815Z,14.70
2022-10-06T19:37:39.274Z,14.70
2022-10-06T19:40:08.805Z,14.70
2022-10-06T19:42:48.605Z,14.70
2022-10-06T19:46:52.470Z,14.70
2022-10-06T19:49:19.886Z,14.60
2022-10-06T19:51:49.477Z,14.60
2022-10-06T19:54:18.985Z,14.60
2022-10-06T19:56:46.838Z,14.50
2022-10-06T19:59:17.797Z,14.50
2022-10-06T20:01:46.163Z,14.50
2022-10-06T20:04:15.787Z,14.40
2022-10-06T20:06:43.344Z,14.50
2022-10-06T20:09:12.262Z,14.40
2022-10-06T20:11:43.738Z,14.40
2022-10-06T20:14:18.276Z,14.40
2022-10-06T20:16:50.728Z,14.40
2022-10-06T20:19:19.517Z,14.40
2022-10-06T20:21:47.708Z,14.40
2022-10-06T20:24:22.521Z,14.30
2022-10-06T20:26:50.846Z,14.20
2022-10-06T20:29:22.744Z,14.20
2022-10-06T20:31:53.228Z,14.20
2022-10-06T20:34:26.052Z,14.20
2022-10-06T20:36:56.179Z,14.20
2022-10-06T20:39:42.684Z,14.20
2022-10-06T20:42:14.987Z,14.20
2022-10-06T20:45:16.302Z,14.20
2022-10-06T20:47:43.875Z,14.20
2022-10-06T20:50:11.407Z,14.10
2022-10-06T20:52:39.655Z,14.10
2022-10-06T20:55:08.596Z,14.10
2022-10-06T20:57:36.425Z,14.10
2022-10-06T21:00:04.076Z,14.00
2022-10-06T21:02:32.115Z,14.00
2022-10-06T21:05:00.050Z,14.00
2022-10-06T21:07:27.527Z,14.00
2022-10-06T21:09:54.971Z,14.00
2022-10-06T21:12:22.464Z,13.90
2022-10-06T21:14:50.144Z,13.90
2022-10-06T21:17:18.954Z,13.90
2022-10-06T21:19:46.384Z,13.90
2022-10-06T21:22:13.869Z,13.90
2022-10-06T21:24:41.309Z,13.90
2022-10-06T21:27:08.784Z,13.80
2022-10-06T21:29:36.401Z,13.80
2022-10-06T21:32:03.852Z,13.80
2022-10-06T21:34:31.808Z,13.80
2022-10-06T21:36:59.284Z,13.80
2022-10-06T21:39:26.704Z,13.70
2022-10-06T21:41:54.168Z,13.70
2022-10-06T21:44:21.633Z,13.70
2022-10-06T21:46:51.287Z,13.70
2022-10-06T21:49:21.249Z,13.70
2022-10-06T21:51:51.144Z,13.70
2022-10-06T21:54:20.584Z,13.70
2022-10-06T21:56:49.205Z,13.70
2022-10-06T21:59:17.047Z,13.70
2022-10-06T22:01:47.969Z,13.60
2022-10-06T22:04:16.090Z,13.70
2022-10-06T22:06:44.994Z,13.60
2022-10-06T22:09:15.830Z,13.60
2022-10-06T22:11:43.621Z,13.60
2022-10-06T22:14:13.096Z,13.60
2022-10-06T22:16:41.395Z,13.60
2022-10-06T22:19:10.685Z,13.60
2022-10-06T22:21:40.329Z,13.60
2022-10-06T22:24:10.651Z,13.60
2022-10-06T22:26:40.348Z,13.60
2022-10-06T22:29:10.489Z,13.60
2022-10-06T22:31:39.747Z,13.60
2022-10-06T22:34:09.319Z,13.60
2022-10-06T22:36:36.874Z,13.60
2022-10-06T22:39:04.510Z,13.60
2022-10-06T22:41:32.395Z,13.60
2022-10-06T22:44:00.397Z,13.60
2022-10-06T22:46:33.734Z,13.60
2022-10-06T22:49:01.720Z,13.60
2022-10-06T22:51:29.521Z,13.50
2022-10-06T22:53:59.335Z,13.50
2022-10-06T22:56:28.839Z,13.50
2022-10-06T22:58:59.709Z,13.50
2022-10-06T23:01:28.672Z,13.50
2022-10-06T23:03:56.553Z,13.40
2022-10-06T23:06:24.700Z,13.50
2022-10-06T23:08:52.865Z,13.50
2022-10-06T23:11:21.496Z,13.50
2022-10-06T23:13:50.643Z,13.50
2022-10-06T23:16:19.578Z,13.50
2022-10-06T23:18:48.103Z,13.50
2022-10-06T23:21:27.201Z,13.50
2022-10-06T23:24:00.055Z,13.40
2022-10-06T23:26:28.165Z,13.40
2022-10-06T23:29:00.673Z,13.40
2022-10-06T23:31:29.139Z,13.40
2022-10-06T23:33:56.936Z,13.40
2022-10-06T23:36:24.949Z,13.30
2022-10-06T23:38:52.520Z,13.40
2022-10-06T23:41:20.309Z,13.40
2022-10-06T23:43:47.950Z,13.30
2022-10-06T23:46:15.534Z,13.30
2022-10-06T23:48:43.161Z,13.30
2022-10-06T23:51:14.093Z,13.30
2022-10-06T23:53:43.003Z,13.30
2022-10-06T23:56:11.031Z,13.30
2022-10-06T23:58:39.213Z,13.30
